首页
METAR-TAF:

METAR-TAF

机场 :

拉贾赫穆恩德尔伊, 印度

纬度: 17-06-37N, 经度: 81-49-06E, 海拔: 46米

当前天气观测

该预报发布于17分钟前的02:30 UTC
风速20节,风向西,有时为30节阵风
温度 26°C
湿度 89%
气压 999 hPa
能見度: 5000
散云层高于1000英尺
多云层高于1200英尺
阴天层高于8000英尺
小雨,

METAR: VORY 200230Z 26020G30KT 5000 -RA SCT010 BKN012 OVC080 26/24 Q0999 NOSIG

时间: 08:17 (02:47 UTC)

预报

该预报发布于47分钟前的02:00 UTC
预报有效从20日的 03点(UTC)到 20日的 12点(UTC)
风速20节,风向西,有时为30节阵风
能見度: 5000
散云层高于1000英尺
散云层高于1500英尺
多云层高于8000英尺
毛毛雨, 雨
短暂存在
从 20日的 10点(UTC)到 20日的 14点(UTC)
风速12节,风向西
能見度: 3000
散云层高于1500英尺
少量云层高于3000英尺, 积雨云.
阴天层高于8000英尺
雨,

TAF: VORY 200200Z 2003/2012 26020G30KT 5000 DZ RA SCT010 SCT015 BKN080 TEMPO 2010/2014 28012KT 3000 .TSRA RA SCT015 FEW030CB OVC080

超过4000个机场的气象观测和天气预报(METAR&TAF报告)。

可查询的气象台以黄色和红色小点在地图上表示。

将鼠标移到小点上方,可查看气象台名称。

然后点击查看天气观测和预报。

如需切换地图:点击带黑十字的绿色按钮放大地图;点击带横线的绿色按钮缩小地图;或者点击绿色箭头查看邻近地区的地图。


METAR-TAF: